sensor_id;sensor_type;location;lat;lon;timestamp;P1;durP1;ratioP1;P2;durP2;ratioP2
31694;SDS011;18289;51.330;4.946;2022-11-22T00:01:02;11.05;;;4.22;;
31694;SDS011;18289;51.330;4.946;2022-11-22T00:03:28;13.77;;;4.10;;
31694;SDS011;18289;51.330;4.946;2022-11-22T00:05:54;4.88;;;3.05;;
31694;SDS011;18289;51.330;4.946;2022-11-22T00:08:20;9.13;;;3.50;;
31694;SDS011;18289;51.330;4.946;2022-11-22T00:10:49;8.15;;;3.58;;
31694;SDS011;18289;51.330;4.946;2022-11-22T00:15:41;7.25;;;3.83;;
31694;SDS011;18289;51.330;4.946;2022-11-22T00:18:07;8.10;;;3.60;;
31694;SDS011;18289;51.330;4.946;2022-11-22T00:20:33;12.75;;;3.28;;
31694;SDS011;18289;51.330;4.946;2022-11-22T00:23:01;7.40;;;3.53;;
31694;SDS011;18289;51.330;4.946;2022-11-22T00:25:27;11.32;;;3.58;;
31694;SDS011;18289;51.330;4.946;2022-11-22T00:27:53;11.50;;;3.63;;
31694;SDS011;18289;51.330;4.946;2022-11-22T00:30:19;9.13;;;3.20;;
31694;SDS011;18289;51.330;4.946;2022-11-22T00:32:45;18.35;;;4.15;;
31694;SDS011;18289;51.330;4.946;2022-11-22T00:35:11;11.23;;;2.88;;
31694;SDS011;18289;51.330;4.946;2022-11-22T00:37:37;16.83;;;3.40;;
31694;SDS011;18289;51.330;4.946;2022-11-22T00:40:03;11.65;;;3.30;;
31694;SDS011;18289;51.330;4.946;2022-11-22T00:42:30;13.57;;;3.33;;
31694;SDS011;18289;51.330;4.946;2022-11-22T00:44:56;8.82;;;2.95;;
31694;SDS011;18289;51.330;4.946;2022-11-22T00:47:21;15.73;;;3.55;;
31694;SDS011;18289;51.330;4.946;2022-11-22T00:49:47;11.38;;;3.22;;
31694;SDS011;18289;51.330;4.946;2022-11-22T00:52:13;15.15;;;4.00;;
31694;SDS011;18289;51.330;4.946;2022-11-22T00:54:38;15.95;;;3.75;;
31694;SDS011;18289;51.330;4.946;2022-11-22T00:57:04;10.38;;;3.45;;
31694;SDS011;18289;51.330;4.946;2022-11-22T00:59:30;13.25;;;3.28;;
31694;SDS011;18289;51.330;4.946;2022-11-22T01:01:56;12.80;;;3.80;;
31694;SDS011;18289;51.330;4.946;2022-11-22T01:04:22;21.70;;;3.47;;
31694;SDS011;18289;51.330;4.946;2022-11-22T01:06:47;17.67;;;4.63;;
31694;SDS011;18289;51.330;4.946;2022-11-22T01:09:15;12.15;;;2.92;;
31694;SDS011;18289;51.330;4.946;2022-11-22T01:11:43;14.52;;;3.45;;
31694;SDS011;18289;51.330;4.946;2022-11-22T01:14:09;10.20;;;3.13;;
31694;SDS011;18289;51.330;4.946;2022-11-22T01:16:35;13.88;;;3.95;;
31694;SDS011;18289;51.330;4.946;2022-11-22T01:19:01;17.92;;;3.40;;
31694;SDS011;18289;51.330;4.946;2022-11-22T01:21:27;12.68;;;3.42;;
31694;SDS011;18289;51.330;4.946;2022-11-22T01:23:53;15.10;;;3.13;;
31694;SDS011;18289;51.330;4.946;2022-11-22T01:26:18;11.55;;;3.58;;
31694;SDS011;18289;51.330;4.946;2022-11-22T01:28:44;15.15;;;3.70;;
31694;SDS011;18289;51.330;4.946;2022-11-22T01:31:10;17.92;;;3.50;;
31694;SDS011;18289;51.330;4.946;2022-11-22T01:33:36;13.88;;;3.25;;
31694;SDS011;18289;51.330;4.946;2022-11-22T01:36:01;18.48;;;3.60;;
31694;SDS011;18289;51.330;4.946;2022-11-22T01:38:27;15.02;;;2.95;;
31694;SDS011;18289;51.330;4.946;2022-11-22T01:40:53;14.63;;;3.42;;
31694;SDS011;18289;51.330;4.946;2022-11-22T01:43:20;14.25;;;3.28;;
31694;SDS011;18289;51.330;4.946;2022-11-22T01:45:48;20.58;;;3.45;;
31694;SDS011;18289;51.330;4.946;2022-11-22T01:51:13;19.08;;;3.35;;
31694;SDS011;18289;51.330;4.946;2022-11-22T01:53:49;17.73;;;3.78;;
31694;SDS011;18289;51.330;4.946;2022-11-22T01:56:16;19.25;;;4.15;;
31694;SDS011;18289;51.330;4.946;2022-11-22T01:58:46;15.35;;;3.25;;
31694;SDS011;18289;51.330;4.946;2022-11-22T02:03:40;14.32;;;3.63;;
31694;SDS011;18289;51.330;4.946;2022-11-22T02:06:10;15.18;;;3.40;;
31694;SDS011;18289;51.330;4.946;2022-11-22T02:08:46;14.48;;;4.20;;
31694;SDS011;18289;51.330;4.946;2022-11-22T02:11:20;14.75;;;3.25;;
31694;SDS011;18289;51.330;4.946;2022-11-22T02:13:47;12.30;;;3.33;;
31694;SDS011;18289;51.330;4.946;2022-11-22T02:16:15;15.43;;;3.40;;
31694;SDS011;18289;51.330;4.946;2022-11-22T02:18:41;16.42;;;4.32;;
31694;SDS011;18289;51.330;4.946;2022-11-22T02:21:07;14.70;;;3.00;;
31694;SDS011;18289;51.330;4.946;2022-11-22T02:23:49;9.70;;;2.90;;
31694;SDS011;18289;51.330;4.946;2022-11-22T02:26:40;12.13;;;2.90;;
31694;SDS011;18289;51.330;4.946;2022-11-22T02:29:06;15.15;;;2.88;;
31694;SDS011;18289;51.330;4.946;2022-11-22T02:31:41;9.95;;;3.10;;
31694;SDS011;18289;51.330;4.946;2022-11-22T02:34:09;13.23;;;2.63;;
31694;SDS011;18289;51.330;4.946;2022-11-22T02:36:40;16.23;;;2.92;;
31694;SDS011;18289;51.330;4.946;2022-11-22T02:39:10;20.08;;;3.53;;
31694;SDS011;18289;51.330;4.946;2022-11-22T02:41:38;15.20;;;3.55;;
31694;SDS011;18289;51.330;4.946;2022-11-22T02:44:04;16.33;;;2.50;;
31694;SDS011;18289;51.330;4.946;2022-11-22T02:46:31;15.20;;;3.33;;
31694;SDS011;18289;51.330;4.946;2022-11-22T02:48:57;19.40;;;3.65;;
31694;SDS011;18289;51.330;4.946;2022-11-22T02:51:23;14.40;;;3.13;;
31694;SDS011;18289;51.330;4.946;2022-11-22T02:53:49;11.57;;;2.50;;
31694;SDS011;18289;51.330;4.946;2022-11-22T02:56:16;13.05;;;3.67;;
31694;SDS011;18289;51.330;4.946;2022-11-22T02:58:42;9.93;;;3.03;;
31694;SDS011;18289;51.330;4.946;2022-11-22T03:01:09;11.82;;;2.88;;
31694;SDS011;18289;51.330;4.946;2022-11-22T03:03:38;13.75;;;2.80;;
31694;SDS011;18289;51.330;4.946;2022-11-22T03:06:04;16.35;;;3.38;;
31694;SDS011;18289;51.330;4.946;2022-11-22T03:08:29;14.13;;;3.25;;
31694;SDS011;18289;51.330;4.946;2022-11-22T03:10:56;10.45;;;2.80;;
31694;SDS011;18289;51.330;4.946;2022-11-22T03:13:23;20.90;;;3.10;;
31694;SDS011;18289;51.330;4.946;2022-11-22T03:15:49;13.77;;;2.95;;
31694;SDS011;18289;51.330;4.946;2022-11-22T03:18:14;17.25;;;3.70;;
31694;SDS011;18289;51.330;4.946;2022-11-22T03:20:40;12.45;;;2.90;;
31694;SDS011;18289;51.330;4.946;2022-11-22T03:23:09;13.30;;;2.97;;
31694;SDS011;18289;51.330;4.946;2022-11-22T03:25:36;17.65;;;3.53;;
31694;SDS011;18289;51.330;4.946;2022-11-22T03:28:02;14.20;;;3.30;;
31694;SDS011;18289;51.330;4.946;2022-11-22T03:30:28;12.50;;;3.08;;
31694;SDS011;18289;51.330;4.946;2022-11-22T03:32:54;13.40;;;2.88;;
31694;SDS011;18289;51.330;4.946;2022-11-22T03:35:19;12.23;;;2.78;;
31694;SDS011;18289;51.330;4.946;2022-11-22T03:37:45;14.95;;;2.80;;
31694;SDS011;18289;51.330;4.946;2022-11-22T03:40:11;18.40;;;3.15;;
31694;SDS011;18289;51.330;4.946;2022-11-22T03:42:37;9.75;;;2.63;;
31694;SDS011;18289;51.330;4.946;2022-11-22T03:45:03;14.77;;;3.78;;
31694;SDS011;18289;51.330;4.946;2022-11-22T03:47:29;13.25;;;3.08;;
31694;SDS011;18289;51.330;4.946;2022-11-22T03:49:55;10.38;;;2.95;;
31694;SDS011;18289;51.330;4.946;2022-11-22T03:52:21;12.80;;;3.17;;
31694;SDS011;18289;51.330;4.946;2022-11-22T03:54:47;12.02;;;2.45;;
31694;SDS011;18289;51.330;4.946;2022-11-22T03:57:12;12.80;;;2.75;;
31694;SDS011;18289;51.330;4.946;2022-11-22T03:59:40;12.90;;;2.78;;
31694;SDS011;18289;51.330;4.946;2022-11-22T04:02:09;11.93;;;3.40;;
31694;SDS011;18289;51.330;4.946;2022-11-22T04:04:35;15.23;;;3.40;;
31694;SDS011;18289;51.330;4.946;2022-11-22T04:07:01;13.32;;;2.42;;
31694;SDS011;18289;51.330;4.946;2022-11-22T04:09:26;9.52;;;3.10;;
31694;SDS011;18289;51.330;4.946;2022-11-22T04:11:52;11.10;;;2.55;;
31694;SDS011;18289;51.330;4.946;2022-11-22T04:14:18;19.40;;;3.97;;
31694;SDS011;18289;51.330;4.946;2022-11-22T04:17:01;20.88;;;3.85;;
31694;SDS011;18289;51.330;4.946;2022-11-22T04:19:27;15.00;;;2.47;;
31694;SDS011;18289;51.330;4.946;2022-11-22T04:21:53;16.55;;;3.22;;
31694;SDS011;18289;51.330;4.946;2022-11-22T04:24:18;13.18;;;3.25;;
31694;SDS011;18289;51.330;4.946;2022-11-22T04:27:03;12.00;;;2.63;;
31694;SDS011;18289;51.330;4.946;2022-11-22T04:29:28;11.10;;;2.80;;
31694;SDS011;18289;51.330;4.946;2022-11-22T04:31:54;11.75;;;2.65;;
31694;SDS011;18289;51.330;4.946;2022-11-22T04:34:38;10.07;;;2.63;;
31694;SDS011;18289;51.330;4.946;2022-11-22T04:37:04;12.57;;;2.85;;
31694;SDS011;18289;51.330;4.946;2022-11-22T04:39:30;17.38;;;2.80;;
31694;SDS011;18289;51.330;4.946;2022-11-22T04:41:56;8.50;;;2.45;;
31694;SDS011;18289;51.330;4.946;2022-11-22T04:44:40;16.35;;;2.92;;
31694;SDS011;18289;51.330;4.946;2022-11-22T04:47:07;16.40;;;3.03;;
31694;SDS011;18289;51.330;4.946;2022-11-22T04:49:58;7.38;;;2.17;;
31694;SDS011;18289;51.330;4.946;2022-11-22T04:52:24;10.77;;;2.20;;
31694;SDS011;18289;51.330;4.946;2022-11-22T04:55:08;9.25;;;2.42;;
31694;SDS011;18289;51.330;4.946;2022-11-22T04:57:34;6.00;;;2.58;;
31694;SDS011;18289;51.330;4.946;2022-11-22T05:00:00;14.30;;;3.30;;
31694;SDS011;18289;51.330;4.946;2022-11-22T05:02:26;11.65;;;2.53;;
31694;SDS011;18289;51.330;4.946;2022-11-22T05:04:51;10.45;;;2.30;;
31694;SDS011;18289;51.330;4.946;2022-11-22T05:07:17;7.82;;;2.30;;
31694;SDS011;18289;51.330;4.946;2022-11-22T05:09:42;10.80;;;3.05;;
31694;SDS011;18289;51.330;4.946;2022-11-22T05:12:08;12.18;;;2.33;;
31694;SDS011;18289;51.330;4.946;2022-11-22T05:14:34;13.77;;;2.63;;
31694;SDS011;18289;51.330;4.946;2022-11-22T05:16:59;13.05;;;2.55;;
31694;SDS011;18289;51.330;4.946;2022-11-22T05:19:25;11.93;;;2.58;;
31694;SDS011;18289;51.330;4.946;2022-11-22T05:21:51;12.00;;;2.45;;
31694;SDS011;18289;51.330;4.946;2022-11-22T05:24:16;9.02;;;2.63;;
31694;SDS011;18289;51.330;4.946;2022-11-22T05:26:42;8.07;;;2.33;;
31694;SDS011;18289;51.330;4.946;2022-11-22T05:29:08;13.80;;;2.80;;
31694;SDS011;18289;51.330;4.946;2022-11-22T05:31:35;10.02;;;2.50;;
31694;SDS011;18289;51.330;4.946;2022-11-22T05:34:02;10.73;;;2.55;;
31694;SDS011;18289;51.330;4.946;2022-11-22T05:36:32;10.40;;;2.95;;
31694;SDS011;18289;51.330;4.946;2022-11-22T05:38:58;14.93;;;3.08;;
31694;SDS011;18289;51.330;4.946;2022-11-22T05:41:24;9.80;;;2.60;;
31694;SDS011;18289;51.330;4.946;2022-11-22T05:43:49;17.27;;;2.75;;
31694;SDS011;18289;51.330;4.946;2022-11-22T05:46:21;10.68;;;2.60;;
31694;SDS011;18289;51.330;4.946;2022-11-22T05:48:51;15.23;;;3.00;;
31694;SDS011;18289;51.330;4.946;2022-11-22T05:51:19;12.57;;;2.63;;
31694;SDS011;18289;51.330;4.946;2022-11-22T05:53:50;19.75;;;3.15;;
31694;SDS011;18289;51.330;4.946;2022-11-22T05:56:16;9.82;;;2.90;;
31694;SDS011;18289;51.330;4.946;2022-11-22T05:58:43;11.82;;;2.72;;
31694;SDS011;18289;51.330;4.946;2022-11-22T06:01:13;14.30;;;3.45;;
31694;SDS011;18289;51.330;4.946;2022-11-22T06:03:41;9.30;;;2.67;;
31694;SDS011;18289;51.330;4.946;2022-11-22T06:06:07;13.40;;;2.92;;
31694;SDS011;18289;51.330;4.946;2022-11-22T06:08:34;9.18;;;2.88;;
31694;SDS011;18289;51.330;4.946;2022-11-22T06:11:08;8.18;;;3.47;;
31694;SDS011;18289;51.330;4.946;2022-11-22T06:13:39;10.98;;;2.70;;
31694;SDS011;18289;51.330;4.946;2022-11-22T06:16:08;9.48;;;2.85;;
31694;SDS011;18289;51.330;4.946;2022-11-22T06:18:34;13.90;;;3.42;;
31694;SDS011;18289;51.330;4.946;2022-11-22T06:21:01;11.43;;;3.35;;
31694;SDS011;18289;51.330;4.946;2022-11-22T06:23:30;9.63;;;3.20;;
31694;SDS011;18289;51.330;4.946;2022-11-22T06:26:00;10.15;;;3.08;;
31694;SDS011;18289;51.330;4.946;2022-11-22T06:28:27;10.35;;;3.30;;
31694;SDS011;18289;51.330;4.946;2022-11-22T06:31:04;13.60;;;3.13;;
31694;SDS011;18289;51.330;4.946;2022-11-22T06:33:31;12.80;;;3.40;;
31694;SDS011;18289;51.330;4.946;2022-11-22T06:36:17;7.72;;;3.53;;
31694;SDS011;18289;51.330;4.946;2022-11-22T06:38:46;9.30;;;3.28;;
31694;SDS011;18289;51.330;4.946;2022-11-22T06:41:16;12.60;;;3.67;;
31694;SDS011;18289;51.330;4.946;2022-11-22T06:43:47;16.00;;;3.88;;
31694;SDS011;18289;51.330;4.946;2022-11-22T06:46:13;13.25;;;3.83;;
31694;SDS011;18289;51.330;4.946;2022-11-22T06:48:40;12.88;;;3.60;;
31694;SDS011;18289;51.330;4.946;2022-11-22T06:51:11;11.52;;;3.95;;
31694;SDS011;18289;51.330;4.946;2022-11-22T06:53:42;13.15;;;3.92;;
31694;SDS011;18289;51.330;4.946;2022-11-22T06:56:13;11.18;;;3.50;;
31694;SDS011;18289;51.330;4.946;2022-11-22T06:58:42;11.20;;;3.50;;
31694;SDS011;18289;51.330;4.946;2022-11-22T07:01:09;14.95;;;3.88;;
31694;SDS011;18289;51.330;4.946;2022-11-22T07:03:40;11.02;;;3.33;;
31694;SDS011;18289;51.330;4.946;2022-11-22T07:06:07;9.98;;;3.15;;
31694;SDS011;18289;51.330;4.946;2022-11-22T07:08:34;9.73;;;3.83;;
31694;SDS011;18289;51.330;4.946;2022-11-22T07:11:02;11.25;;;3.63;;
31694;SDS011;18289;51.330;4.946;2022-11-22T07:13:30;13.70;;;3.60;;
31694;SDS011;18289;51.330;4.946;2022-11-22T07:15:56;13.13;;;3.70;;
31694;SDS011;18289;51.330;4.946;2022-11-22T07:18:23;13.43;;;3.50;;
31694;SDS011;18289;51.330;4.946;2022-11-22T07:20:49;13.13;;;3.88;;
31694;SDS011;18289;51.330;4.946;2022-11-22T07:23:15;8.88;;;3.45;;
31694;SDS011;18289;51.330;4.946;2022-11-22T07:25:45;13.02;;;3.22;;
31694;SDS011;18289;51.330;4.946;2022-11-22T07:28:12;9.98;;;3.50;;
31694;SDS011;18289;51.330;4.946;2022-11-22T07:30:38;8.13;;;3.10;;
31694;SDS011;18289;51.330;4.946;2022-11-22T07:33:04;11.63;;;3.40;;
31694;SDS011;18289;51.330;4.946;2022-11-22T07:35:30;11.88;;;3.75;;
31694;SDS011;18289;51.330;4.946;2022-11-22T07:37:55;11.77;;;3.85;;
31694;SDS011;18289;51.330;4.946;2022-11-22T07:40:21;9.70;;;3.40;;
31694;SDS011;18289;51.330;4.946;2022-11-22T07:42:47;5.53;;;3.08;;
31694;SDS011;18289;51.330;4.946;2022-11-22T07:45:12;6.07;;;3.00;;
31694;SDS011;18289;51.330;4.946;2022-11-22T07:47:38;8.63;;;3.53;;
31694;SDS011;18289;51.330;4.946;2022-11-22T07:50:04;13.73;;;3.28;;
31694;SDS011;18289;51.330;4.946;2022-11-22T07:52:30;7.55;;;3.58;;
31694;SDS011;18289;51.330;4.946;2022-11-22T07:54:56;11.23;;;3.30;;
31694;SDS011;18289;51.330;4.946;2022-11-22T07:57:22;10.07;;;3.75;;
31694;SDS011;18289;51.330;4.946;2022-11-22T07:59:47;7.85;;;3.45;;
31694;SDS011;18289;51.330;4.946;2022-11-22T08:02:13;7.55;;;3.25;;
31694;SDS011;18289;51.330;4.946;2022-11-22T08:04:39;8.23;;;3.60;;
31694;SDS011;18289;51.330;4.946;2022-11-22T08:07:05;10.35;;;3.47;;
31694;SDS011;18289;51.330;4.946;2022-11-22T08:09:31;9.50;;;3.65;;
31694;SDS011;18289;51.330;4.946;2022-11-22T08:11:56;11.60;;;2.90;;
31694;SDS011;18289;51.330;4.946;2022-11-22T08:14:22;7.38;;;3.30;;
31694;SDS011;18289;51.330;4.946;2022-11-22T08:16:48;11.75;;;3.10;;
31694;SDS011;18289;51.330;4.946;2022-11-22T08:19:14;7.88;;;3.47;;
31694;SDS011;18289;51.330;4.946;2022-11-22T08:21:42;10.82;;;3.60;;
31694;SDS011;18289;51.330;4.946;2022-11-22T08:24:08;8.27;;;2.97;;
31694;SDS011;18289;51.330;4.946;2022-11-22T08:26:35;6.30;;;3.10;;
31694;SDS011;18289;51.330;4.946;2022-11-22T08:29:04;13.40;;;3.42;;
31694;SDS011;18289;51.330;4.946;2022-11-22T08:31:31;10.15;;;3.28;;
31694;SDS011;18289;51.330;4.946;2022-11-22T08:33:57;7.03;;;3.00;;
31694;SDS011;18289;51.330;4.946;2022-11-22T08:36:23;5.47;;;2.97;;
31694;SDS011;18289;51.330;4.946;2022-11-22T08:38:48;9.80;;;3.28;;
31694;SDS011;18289;51.330;4.946;2022-11-22T08:41:14;11.43;;;3.25;;
31694;SDS011;18289;51.330;4.946;2022-11-22T08:43:40;9.60;;;3.28;;
31694;SDS011;18289;51.330;4.946;2022-11-22T08:46:06;8.27;;;3.92;;
31694;SDS011;18289;51.330;4.946;2022-11-22T08:48:32;8.88;;;3.20;;
31694;SDS011;18289;51.330;4.946;2022-11-22T08:51:01;8.88;;;4.35;;
31694;SDS011;18289;51.330;4.946;2022-11-22T08:53:30;7.90;;;2.97;;
31694;SDS011;18289;51.330;4.946;2022-11-22T08:56:00;9.95;;;3.10;;
31694;SDS011;18289;51.330;4.946;2022-11-22T08:58:30;8.77;;;2.85;;
31694;SDS011;18289;51.330;4.946;2022-11-22T09:01:07;9.85;;;3.38;;
31694;SDS011;18289;51.330;4.946;2022-11-22T09:03:35;6.28;;;2.90;;
31694;SDS011;18289;51.330;4.946;2022-11-22T09:06:02;8.32;;;2.80;;
31694;SDS011;18289;51.330;4.946;2022-11-22T09:08:31;11.10;;;3.17;;
31694;SDS011;18289;51.330;4.946;2022-11-22T09:11:01;12.32;;;3.17;;
31694;SDS011;18289;51.330;4.946;2022-11-22T09:13:29;10.20;;;3.17;;
31694;SDS011;18289;51.330;4.946;2022-11-22T09:15:59;12.70;;;3.90;;
31694;SDS011;18289;51.330;4.946;2022-11-22T09:18:26;10.10;;;3.10;;
31694;SDS011;18289;51.330;4.946;2022-11-22T09:20:59;8.10;;;3.03;;
31694;SDS011;18289;51.330;4.946;2022-11-22T09:23:25;11.27;;;3.67;;
31694;SDS011;18289;51.330;4.946;2022-11-22T09:26:07;12.10;;;3.85;;
31694;SDS011;18289;51.330;4.946;2022-11-22T09:28:35;6.50;;;2.58;;
31694;SDS011;18289;51.330;4.946;2022-11-22T09:31:02;7.13;;;2.70;;
31694;SDS011;18289;51.330;4.946;2022-11-22T09:33:29;14.95;;;3.80;;
31694;SDS011;18289;51.330;4.946;2022-11-22T09:36:00;11.73;;;3.17;;
31694;SDS011;18289;51.330;4.946;2022-11-22T09:38:31;8.35;;;3.10;;
31694;SDS011;18289;51.330;4.946;2022-11-22T09:40:57;10.32;;;3.33;;
31694;SDS011;18289;51.330;4.946;2022-11-22T09:46:45;7.22;;;3.22;;
31694;SDS011;18289;51.330;4.946;2022-11-22T09:49:14;12.43;;;3.55;;
31694;SDS011;18289;51.330;4.946;2022-11-22T09:54:30;6.40;;;2.92;;
31694;SDS011;18289;51.330;4.946;2022-11-22T09:57:03;8.57;;;3.30;;
31694;SDS011;18289;51.330;4.946;2022-11-22T09:59:33;5.72;;;2.65;;
31694;SDS011;18289;51.330;4.946;2022-11-22T10:02:04;8.20;;;3.30;;
31694;SDS011;18289;51.330;4.946;2022-11-22T10:04:56;8.02;;;3.05;;
31694;SDS011;18289;51.330;4.946;2022-11-22T10:10:13;8.30;;;3.42;;
31694;SDS011;18289;51.330;4.946;2022-11-22T10:12:58;10.23;;;3.50;;
31694;SDS011;18289;51.330;4.946;2022-11-22T10:18:05;9.48;;;2.85;;
31694;SDS011;18289;51.330;4.946;2022-11-22T10:20:43;8.48;;;3.35;;
31694;SDS011;18289;51.330;4.946;2022-11-22T10:23:14;4.28;;;2.47;;
31694;SDS011;18289;51.330;4.946;2022-11-22T10:25:56;5.13;;;2.70;;
31694;SDS011;18289;51.330;4.946;2022-11-22T10:31:25;7.95;;;2.85;;
31694;SDS011;18289;51.330;4.946;2022-11-22T10:56:05;10.13;;;2.83;;
31694;SDS011;18289;51.330;4.946;2022-11-22T11:04:22;10.30;;;2.85;;
31694;SDS011;18289;51.330;4.946;2022-11-22T11:06:56;5.07;;;2.65;;
31694;SDS011;18289;51.330;4.946;2022-11-22T11:09:32;8.00;;;2.33;;
31694;SDS011;18289;51.330;4.946;2022-11-22T11:12:03;10.68;;;2.50;;
31694;SDS011;18289;51.330;4.946;2022-11-22T11:14:40;6.30;;;2.30;;
31694;SDS011;18289;51.330;4.946;2022-11-22T11:17:24;9.07;;;2.72;;
31694;SDS011;18289;51.330;4.946;2022-11-22T11:19:53;7.25;;;2.85;;
31694;SDS011;18289;51.330;4.946;2022-11-22T11:22:24;5.95;;;2.60;;
31694;SDS011;18289;51.330;4.946;2022-11-22T11:24:52;6.05;;;2.05;;
31694;SDS011;18289;51.330;4.946;2022-11-22T11:27:18;7.05;;;2.15;;
31694;SDS011;18289;51.330;4.946;2022-11-22T11:29:46;7.50;;;2.10;;
31694;SDS011;18289;51.330;4.946;2022-11-22T11:32:21;4.13;;;2.13;;
31694;SDS011;18289;51.330;4.946;2022-11-22T11:35:03;8.43;;;2.10;;
31694;SDS011;18289;51.330;4.946;2022-11-22T11:39:59;2.95;;;2.65;;
31694;SDS011;18289;51.330;4.946;2022-11-22T11:42:29;4.93;;;2.50;;
31694;SDS011;18289;51.330;4.946;2022-11-22T11:47:49;3.72;;;2.05;;
31694;SDS011;18289;51.330;4.946;2022-11-22T11:50:19;3.35;;;1.70;;
31694;SDS011;18289;51.330;4.946;2022-11-22T11:52:50;2.05;;;1.70;;
31694;SDS011;18289;51.330;4.946;2022-11-22T11:55:20;5.57;;;1.83;;
31694;SDS011;18289;51.330;4.946;2022-11-22T11:57:47;4.97;;;2.08;;
31694;SDS011;18289;51.330;4.946;2022-11-22T12:00:20;3.33;;;2.10;;
31694;SDS011;18289;51.330;4.946;2022-11-22T12:02:59;2.95;;;1.83;;
31694;SDS011;18289;51.330;4.946;2022-11-22T12:05:30;2.88;;;1.77;;
31694;SDS011;18289;51.330;4.946;2022-11-22T12:07:57;3.75;;;2.40;;
31694;SDS011;18289;51.330;4.946;2022-11-22T12:20:56;2.70;;;1.77;;
31694;SDS011;18289;51.330;4.946;2022-11-22T12:26:29;3.40;;;1.90;;
31694;SDS011;18289;51.330;4.946;2022-11-22T12:28:55;5.30;;;1.88;;
31694;SDS011;18289;51.330;4.946;2022-11-22T12:31:57;2.97;;;1.80;;
31694;SDS011;18289;51.330;4.946;2022-11-22T12:34:34;2.95;;;1.63;;
31694;SDS011;18289;51.330;4.946;2022-11-22T12:37:14;2.72;;;2.03;;
31694;SDS011;18289;51.330;4.946;2022-11-22T12:39:51;3.22;;;2.05;;
31694;SDS011;18289;51.330;4.946;2022-11-22T12:44:57;4.30;;;1.63;;
31694;SDS011;18289;51.330;4.946;2022-11-22T12:47:30;1.70;;;1.60;;
31694;SDS011;18289;51.330;4.946;2022-11-22T12:50:47;2.85;;;1.60;;
31694;SDS011;18289;51.330;4.946;2022-11-22T12:53:14;4.38;;;1.77;;
31694;SDS011;18289;51.330;4.946;2022-11-22T12:58:38;2.45;;;1.70;;
31694;SDS011;18289;51.330;4.946;2022-11-22T13:01:24;2.72;;;1.75;;
31694;SDS011;18289;51.330;4.946;2022-11-22T13:04:09;2.78;;;1.95;;
31694;SDS011;18289;51.330;4.946;2022-11-22T13:09:30;2.85;;;1.45;;
31694;SDS011;18289;51.330;4.946;2022-11-22T13:12:04;1.38;;;1.30;;
31694;SDS011;18289;51.330;4.946;2022-11-22T13:14:37;2.15;;;1.67;;
31694;SDS011;18289;51.330;4.946;2022-11-22T13:17:10;1.90;;;1.40;;
31694;SDS011;18289;51.330;4.946;2022-11-22T13:19:47;1.95;;;1.33;;
31694;SDS011;18289;51.330;4.946;2022-11-22T13:27:47;1.70;;;1.42;;
31694;SDS011;18289;51.330;4.946;2022-11-22T13:30:20;1.65;;;1.55;;
31694;SDS011;18289;51.330;4.946;2022-11-22T13:32:50;2.88;;;1.60;;
31694;SDS011;18289;51.330;4.946;2022-11-22T13:35:37;2.20;;;1.70;;
31694;SDS011;18289;51.330;4.946;2022-11-22T13:38:15;2.17;;;1.65;;
31694;SDS011;18289;51.330;4.946;2022-11-22T13:40:46;5.18;;;2.47;;
31694;SDS011;18289;51.330;4.946;2022-11-22T13:46:41;3.50;;;1.85;;
31694;SDS011;18289;51.330;4.946;2022-11-22T13:53:43;3.47;;;1.88;;
31694;SDS011;18289;51.330;4.946;2022-11-22T14:09:32;2.50;;;1.65;;
31694;SDS011;18289;51.330;4.946;2022-11-22T14:29:07;2.00;;;1.80;;
31694;SDS011;18289;51.330;4.946;2022-11-22T14:31:38;3.28;;;1.88;;
31694;SDS011;18289;51.330;4.946;2022-11-22T14:34:21;1.73;;;1.63;;
31694;SDS011;18289;51.330;4.946;2022-11-22T14:45:01;2.50;;;2.30;;
31694;SDS011;18289;51.330;4.946;2022-11-22T14:47:28;2.42;;;2.03;;
31694;SDS011;18289;51.330;4.946;2022-11-22T14:49:54;3.38;;;2.10;;
31694;SDS011;18289;51.330;4.946;2022-11-22T14:52:24;2.42;;;2.22;;
31694;SDS011;18289;51.330;4.946;2022-11-22T14:54:58;2.47;;;2.28;;
31694;SDS011;18289;51.330;4.946;2022-11-22T14:57:27;2.60;;;2.40;;
31694;SDS011;18289;51.330;4.946;2022-11-22T15:13:32;4.00;;;2.67;;
31694;SDS011;18289;51.330;4.946;2022-11-22T15:16:31;4.15;;;3.13;;
31694;SDS011;18289;51.330;4.946;2022-11-22T15:18:57;2.83;;;2.63;;
31694;SDS011;18289;51.330;4.946;2022-11-22T15:21:28;3.20;;;2.90;;
31694;SDS011;18289;51.330;4.946;2022-11-22T15:23:55;2.92;;;2.72;;
31694;SDS011;18289;51.330;4.946;2022-11-22T15:26:22;4.30;;;2.42;;
31694;SDS011;18289;51.330;4.946;2022-11-22T15:28:50;3.08;;;2.58;;
31694;SDS011;18289;51.330;4.946;2022-11-22T15:31:35;3.90;;;2.85;;
31694;SDS011;18289;51.330;4.946;2022-11-22T15:34:01;3.00;;;2.70;;
31694;SDS011;18289;51.330;4.946;2022-11-22T15:39:16;4.40;;;2.95;;
31694;SDS011;18289;51.330;4.946;2022-11-22T15:41:47;3.13;;;2.80;;
31694;SDS011;18289;51.330;4.946;2022-11-22T15:44:14;3.28;;;2.85;;
31694;SDS011;18289;51.330;4.946;2022-11-22T15:46:40;3.17;;;2.97;;
31694;SDS011;18289;51.330;4.946;2022-11-22T15:49:13;3.13;;;2.80;;
31694;SDS011;18289;51.330;4.946;2022-11-22T15:51:51;2.90;;;2.70;;
31694;SDS011;18289;51.330;4.946;2022-11-22T15:54:20;4.15;;;3.45;;
31694;SDS011;18289;51.330;4.946;2022-11-22T15:56:56;3.33;;;3.03;;
31694;SDS011;18289;51.330;4.946;2022-11-22T15:59:29;3.47;;;3.17;;
31694;SDS011;18289;51.330;4.946;2022-11-22T16:02:00;4.28;;;3.00;;
31694;SDS011;18289;51.330;4.946;2022-11-22T16:04:27;3.55;;;2.90;;
31694;SDS011;18289;51.330;4.946;2022-11-22T16:06:55;4.63;;;3.10;;
31694;SDS011;18289;51.330;4.946;2022-11-22T16:09:24;3.28;;;2.85;;
31694;SDS011;18289;51.330;4.946;2022-11-22T16:12:05;4.72;;;2.78;;
31694;SDS011;18289;51.330;4.946;2022-11-22T16:14:47;3.78;;;2.88;;
31694;SDS011;18289;51.330;4.946;2022-11-22T16:17:25;4.82;;;3.67;;
31694;SDS011;18289;51.330;4.946;2022-11-22T16:25:35;2.90;;;2.70;;
31694;SDS011;18289;51.330;4.946;2022-11-22T16:31:00;3.63;;;2.90;;
31694;SDS011;18289;51.330;4.946;2022-11-22T16:33:46;8.85;;;5.88;;
31694;SDS011;18289;51.330;4.946;2022-11-22T16:36:13;5.45;;;3.28;;
31694;SDS011;18289;51.330;4.946;2022-11-22T16:38:39;6.05;;;2.75;;
31694;SDS011;18289;51.330;4.946;2022-11-22T16:41:19;7.60;;;3.40;;
31694;SDS011;18289;51.330;4.946;2022-11-22T16:43:54;5.95;;;2.47;;
31694;SDS011;18289;51.330;4.946;2022-11-22T16:46:23;2.60;;;2.40;;
31694;SDS011;18289;51.330;4.946;2022-11-22T16:48:48;2.65;;;2.40;;
31694;SDS011;18289;51.330;4.946;2022-11-22T16:51:22;4.75;;;2.53;;
31694;SDS011;18289;51.330;4.946;2022-11-22T16:53:53;6.40;;;2.65;;
31694;SDS011;18289;51.330;4.946;2022-11-22T16:56:30;5.80;;;2.60;;
31694;SDS011;18289;51.330;4.946;2022-11-22T16:58:57;4.25;;;2.45;;
31694;SDS011;18289;51.330;4.946;2022-11-22T17:01:23;3.05;;;2.30;;
31694;SDS011;18289;51.330;4.946;2022-11-22T17:03:51;4.55;;;2.50;;
31694;SDS011;18289;51.330;4.946;2022-11-22T17:06:22;4.75;;;2.20;;
31694;SDS011;18289;51.330;4.946;2022-11-22T17:08:50;4.53;;;2.47;;
31694;SDS011;18289;51.330;4.946;2022-11-22T17:11:21;6.40;;;2.53;;
31694;SDS011;18289;51.330;4.946;2022-11-22T17:13:48;5.72;;;3.55;;
31694;SDS011;18289;51.330;4.946;2022-11-22T17:16:14;5.97;;;2.42;;
31694;SDS011;18289;51.330;4.946;2022-11-22T17:18:43;5.43;;;2.50;;
31694;SDS011;18289;51.330;4.946;2022-11-22T17:21:23;8.52;;;2.78;;
31694;SDS011;18289;51.330;4.946;2022-11-22T17:23:49;6.40;;;3.03;;
31694;SDS011;18289;51.330;4.946;2022-11-22T17:26:16;4.60;;;2.80;;
31694;SDS011;18289;51.330;4.946;2022-11-22T17:28:41;5.30;;;2.70;;